sensor_id;sensor_type;location;lat;lon;timestamp;temperature;humidity
3202;DHT22;34843;48.744;8.958;2022-10-18T00:01:35;12.60;99.90
3202;DHT22;34843;48.744;8.958;2022-10-18T00:04:00;12.60;99.90
3202;DHT22;34843;48.744;8.958;2022-10-18T00:06:26;12.60;99.90
3202;DHT22;34843;48.744;8.958;2022-10-18T00:08:51;12.60;99.90
3202;DHT22;34843;48.744;8.958;2022-10-18T00:11:17;12.60;99.90
3202;DHT22;34843;48.744;8.958;2022-10-18T00:13:42;12.60;99.90
3202;DHT22;34843;48.744;8.958;2022-10-18T00:16:10;12.60;99.90
3202;DHT22;34843;48.744;8.958;2022-10-18T00:18:36;12.60;99.90
3202;DHT22;34843;48.744;8.958;2022-10-18T00:21:03;12.60;99.90
3202;DHT22;34843;48.744;8.958;2022-10-18T00:23:29;12.60;99.90
3202;DHT22;34843;48.744;8.958;2022-10-18T00:26:37;12.60;99.90
3202;DHT22;34843;48.744;8.958;2022-10-18T00:28:44;12.60;99.90
3202;DHT22;34843;48.744;8.958;2022-10-18T00:31:11;12.60;99.90
3202;DHT22;34843;48.744;8.958;2022-10-18T00:33:36;12.50;99.90
3202;DHT22;34843;48.744;8.958;2022-10-18T00:36:02;12.60;99.90
3202;DHT22;34843;48.744;8.958;2022-10-18T00:38:27;12.50;99.90
3202;DHT22;34843;48.744;8.958;2022-10-18T00:40:53;12.40;99.90
3202;DHT22;34843;48.744;8.958;2022-10-18T00:43:18;12.50;99.90
3202;DHT22;34843;48.744;8.958;2022-10-18T00:45:43;12.50;99.90
3202;DHT22;34843;48.744;8.958;2022-10-18T00:48:09;12.50;99.90
3202;DHT22;34843;48.744;8.958;2022-10-18T00:50:35;12.50;99.90
3202;DHT22;34843;48.744;8.958;2022-10-18T00:53:02;12.50;99.90
3202;DHT22;34843;48.744;8.958;2022-10-18T00:55:30;12.50;99.90
3202;DHT22;34843;48.744;8.958;2022-10-18T00:57:55;12.50;99.90
3202;DHT22;34843;48.744;8.958;2022-10-18T01:00:21;12.50;99.90
3202;DHT22;34843;48.744;8.958;2022-10-18T01:02:47;12.50;99.90
3202;DHT22;34843;48.744;8.958;2022-10-18T01:05:13;12.60;99.90
3202;DHT22;34843;48.744;8.958;2022-10-18T01:13:40;12.80;99.90
3202;DHT22;34843;48.744;8.958;2022-10-18T01:16:11;12.90;99.90
3202;DHT22;34843;48.744;8.958;2022-10-18T01:24:13;12.90;99.90
3202;DHT22;34843;48.744;8.958;2022-10-18T01:26:44;13.00;99.90
3202;DHT22;34843;48.744;8.958;2022-10-18T01:31:38;13.10;99.90
3202;DHT22;34843;48.744;8.958;2022-10-18T01:34:07;13.20;99.90
3202;DHT22;34843;48.744;8.958;2022-10-18T01:36:34;13.30;99.90
3202;DHT22;34843;48.744;8.958;2022-10-18T01:39:02;13.30;99.90
3202;DHT22;34843;48.744;8.958;2022-10-18T01:41:30;13.40;99.90
3202;DHT22;34843;48.744;8.958;2022-10-18T01:43:57;13.40;99.90
3202;DHT22;34843;48.744;8.958;2022-10-18T01:46:24;13.50;99.90
3202;DHT22;34843;48.744;8.958;2022-10-18T01:48:53;13.50;99.90
3202;DHT22;34843;48.744;8.958;2022-10-18T01:51:25;13.50;99.90
3202;DHT22;34843;48.744;8.958;2022-10-18T01:53:51;13.50;99.90
3202;DHT22;34843;48.744;8.958;2022-10-18T01:56:19;13.60;99.90
3202;DHT22;34843;48.744;8.958;2022-10-18T01:58:48;13.60;99.90
3202;DHT22;34843;48.744;8.958;2022-10-18T02:01:19;13.60;99.90
3202;DHT22;34843;48.744;8.958;2022-10-18T02:03:47;13.60;99.90
3202;DHT22;34843;48.744;8.958;2022-10-18T02:06:19;13.70;99.90
3202;DHT22;34843;48.744;8.958;2022-10-18T02:08:51;13.70;99.90
3202;DHT22;34843;48.744;8.958;2022-10-18T02:11:19;13.80;99.90
3202;DHT22;34843;48.744;8.958;2022-10-18T02:13:46;13.90;99.90
3202;DHT22;34843;48.744;8.958;2022-10-18T02:16:15;13.90;99.90
3202;DHT22;34843;48.744;8.958;2022-10-18T02:19:08;13.90;99.90
3202;DHT22;34843;48.744;8.958;2022-10-18T02:21:29;14.00;99.90
3202;DHT22;34843;48.744;8.958;2022-10-18T02:23:55;14.00;99.90
3202;DHT22;34843;48.744;8.958;2022-10-18T02:26:21;14.00;99.90
3202;DHT22;34843;48.744;8.958;2022-10-18T02:28:47;14.10;99.90
3202;DHT22;34843;48.744;8.958;2022-10-18T02:31:14;14.10;99.90
3202;DHT22;34843;48.744;8.958;2022-10-18T02:36:18;14.10;99.90
3202;DHT22;34843;48.744;8.958;2022-10-18T02:38:44;14.20;99.90
3202;DHT22;34843;48.744;8.958;2022-10-18T02:41:10;14.10;99.90
3202;DHT22;34843;48.744;8.958;2022-10-18T02:43:35;14.10;99.90
3202;DHT22;34843;48.744;8.958;2022-10-18T02:46:01;14.10;99.90
3202;DHT22;34843;48.744;8.958;2022-10-18T02:48:27;14.10;99.90
3202;DHT22;34843;48.744;8.958;2022-10-18T02:50:52;14.10;99.90
3202;DHT22;34843;48.744;8.958;2022-10-18T02:53:18;14.10;99.90
3202;DHT22;34843;48.744;8.958;2022-10-18T02:55:43;14.10;99.90
3202;DHT22;34843;48.744;8.958;2022-10-18T02:58:08;14.20;99.90
3202;DHT22;34843;48.744;8.958;2022-10-18T03:00:34;14.20;99.90
3202;DHT22;34843;48.744;8.958;2022-10-18T03:02:59;14.20;99.90
3202;DHT22;34843;48.744;8.958;2022-10-18T03:05:25;14.20;99.90
3202;DHT22;34843;48.744;8.958;2022-10-18T03:07:50;14.30;99.90
3202;DHT22;34843;48.744;8.958;2022-10-18T03:10:16;14.30;99.90
3202;DHT22;34843;48.744;8.958;2022-10-18T03:12:41;14.30;99.90
3202;DHT22;34843;48.744;8.958;2022-10-18T03:15:07;14.30;99.90
3202;DHT22;34843;48.744;8.958;2022-10-18T03:17:32;14.30;99.90
3202;DHT22;34843;48.744;8.958;2022-10-18T03:19:58;14.20;99.90
3202;DHT22;34843;48.744;8.958;2022-10-18T03:22:23;14.20;99.90
3202;DHT22;34843;48.744;8.958;2022-10-18T03:24:49;14.20;99.90
3202;DHT22;34843;48.744;8.958;2022-10-18T03:27:14;14.20;99.90
3202;DHT22;34843;48.744;8.958;2022-10-18T03:29:40;14.20;99.90
3202;DHT22;34843;48.744;8.958;2022-10-18T03:32:05;14.20;99.90
3202;DHT22;34843;48.744;8.958;2022-10-18T03:34:31;14.20;99.90
3202;DHT22;34843;48.744;8.958;2022-10-18T03:36:56;14.20;99.90
3202;DHT22;34843;48.744;8.958;2022-10-18T03:39:22;14.20;99.90
3202;DHT22;34843;48.744;8.958;2022-10-18T03:41:47;14.10;99.90
3202;DHT22;34843;48.744;8.958;2022-10-18T03:44:13;14.00;99.90
3202;DHT22;34843;48.744;8.958;2022-10-18T03:46:38;14.00;99.90
3202;DHT22;34843;48.744;8.958;2022-10-18T03:49:03;14.00;99.90
3202;DHT22;34843;48.744;8.958;2022-10-18T03:51:29;14.00;99.90
3202;DHT22;34843;48.744;8.958;2022-10-18T03:53:54;14.00;99.90
3202;DHT22;34843;48.744;8.958;2022-10-18T03:56:20;14.00;99.90
3202;DHT22;34843;48.744;8.958;2022-10-18T03:58:45;13.90;99.90
3202;DHT22;34843;48.744;8.958;2022-10-18T04:01:11;13.90;99.90
3202;DHT22;34843;48.744;8.958;2022-10-18T04:03:36;13.90;99.90
3202;DHT22;34843;48.744;8.958;2022-10-18T04:06:01;13.80;99.90
3202;DHT22;34843;48.744;8.958;2022-10-18T04:08:28;13.80;99.90
3202;DHT22;34843;48.744;8.958;2022-10-18T04:10:53;13.80;99.90
3202;DHT22;34843;48.744;8.958;2022-10-18T04:13:19;13.80;99.90
3202;DHT22;34843;48.744;8.958;2022-10-18T04:15:44;13.70;99.90
3202;DHT22;34843;48.744;8.958;2022-10-18T04:18:10;13.70;99.90
3202;DHT22;34843;48.744;8.958;2022-10-18T04:20:35;13.80;99.90
3202;DHT22;34843;48.744;8.958;2022-10-18T04:23:00;13.80;99.90
3202;DHT22;34843;48.744;8.958;2022-10-18T04:25:26;13.80;99.90
3202;DHT22;34843;48.744;8.958;2022-10-18T04:27:53;13.80;99.90
3202;DHT22;34843;48.744;8.958;2022-10-18T04:30:18;13.80;99.90
3202;DHT22;34843;48.744;8.958;2022-10-18T04:32:43;13.80;99.90
3202;DHT22;34843;48.744;8.958;2022-10-18T04:35:09;13.80;99.90
3202;DHT22;34843;48.744;8.958;2022-10-18T04:37:34;13.80;99.90
3202;DHT22;34843;48.744;8.958;2022-10-18T04:40:00;13.80;99.90
3202;DHT22;34843;48.744;8.958;2022-10-18T04:42:26;13.80;99.90
3202;DHT22;34843;48.744;8.958;2022-10-18T04:44:51;13.80;99.90
3202;DHT22;34843;48.744;8.958;2022-10-18T04:47:17;13.90;99.90
3202;DHT22;34843;48.744;8.958;2022-10-18T04:49:42;13.80;99.90
3202;DHT22;34843;48.744;8.958;2022-10-18T04:52:08;13.80;99.90
3202;DHT22;34843;48.744;8.958;2022-10-18T04:54:34;13.80;99.90
3202;DHT22;34843;48.744;8.958;2022-10-18T04:56:59;13.90;99.90
3202;DHT22;34843;48.744;8.958;2022-10-18T04:59:25;13.80;99.90
3202;DHT22;34843;48.744;8.958;2022-10-18T05:01:50;13.80;99.90
3202;DHT22;34843;48.744;8.958;2022-10-18T05:04:16;13.80;99.90
3202;DHT22;34843;48.744;8.958;2022-10-18T05:06:41;13.80;99.90
3202;DHT22;34843;48.744;8.958;2022-10-18T05:09:07;13.80;99.90
3202;DHT22;34843;48.744;8.958;2022-10-18T05:11:32;13.80;99.90
3202;DHT22;34843;48.744;8.958;2022-10-18T05:13:58;13.80;99.90
3202;DHT22;34843;48.744;8.958;2022-10-18T05:16:24;13.80;99.90
3202;DHT22;34843;48.744;8.958;2022-10-18T05:18:49;13.80;99.90
3202;DHT22;34843;48.744;8.958;2022-10-18T05:21:15;13.80;99.90
3202;DHT22;34843;48.744;8.958;2022-10-18T05:23:40;13.70;99.90
3202;DHT22;34843;48.744;8.958;2022-10-18T05:26:06;13.70;99.90
3202;DHT22;34843;48.744;8.958;2022-10-18T05:28:32;13.60;99.90
3202;DHT22;34843;48.744;8.958;2022-10-18T05:31:01;13.60;99.90
3202;DHT22;34843;48.744;8.958;2022-10-18T05:33:27;13.50;99.90
3202;DHT22;34843;48.744;8.958;2022-10-18T05:35:52;13.40;99.90
3202;DHT22;34843;48.744;8.958;2022-10-18T05:38:18;13.40;99.90
3202;DHT22;34843;48.744;8.958;2022-10-18T05:40:43;13.40;99.90
3202;DHT22;34843;48.744;8.958;2022-10-18T05:43:09;13.30;99.90
3202;DHT22;34843;48.744;8.958;2022-10-18T05:45:34;13.30;99.90
3202;DHT22;34843;48.744;8.958;2022-10-18T05:48:00;13.30;99.90
3202;DHT22;34843;48.744;8.958;2022-10-18T05:50:25;13.20;99.90
3202;DHT22;34843;48.744;8.958;2022-10-18T05:52:51;13.20;99.90
3202;DHT22;34843;48.744;8.958;2022-10-18T05:55:21;13.20;99.90
3202;DHT22;34843;48.744;8.958;2022-10-18T05:57:49;13.20;99.90
3202;DHT22;34843;48.744;8.958;2022-10-18T06:00:15;13.20;99.90
3202;DHT22;34843;48.744;8.958;2022-10-18T06:02:41;13.20;99.90
3202;DHT22;34843;48.744;8.958;2022-10-18T06:05:06;13.30;99.90
3202;DHT22;34843;48.744;8.958;2022-10-18T06:07:32;13.40;99.90
3202;DHT22;34843;48.744;8.958;2022-10-18T06:09:57;13.40;99.90
3202;DHT22;34843;48.744;8.958;2022-10-18T06:12:23;13.50;99.90
3202;DHT22;34843;48.744;8.958;2022-10-18T06:14:48;13.60;99.90
3202;DHT22;34843;48.744;8.958;2022-10-18T06:17:14;13.60;99.90
3202;DHT22;34843;48.744;8.958;2022-10-18T06:19:39;13.70;99.90
3202;DHT22;34843;48.744;8.958;2022-10-18T06:22:05;13.80;99.90
3202;DHT22;34843;48.744;8.958;2022-10-18T06:24:30;14.00;99.90
3202;DHT22;34843;48.744;8.958;2022-10-18T06:26:56;14.10;99.90
3202;DHT22;34843;48.744;8.958;2022-10-18T06:29:21;14.30;99.90
3202;DHT22;34843;48.744;8.958;2022-10-18T06:31:47;14.40;99.90
3202;DHT22;34843;48.744;8.958;2022-10-18T06:34:12;14.70;99.90
3202;DHT22;34843;48.744;8.958;2022-10-18T06:36:37;15.00;99.90
3202;DHT22;34843;48.744;8.958;2022-10-18T06:39:03;15.20;99.90
3202;DHT22;34843;48.744;8.958;2022-10-18T06:41:28;15.40;99.90
3202;DHT22;34843;48.744;8.958;2022-10-18T06:43:54;15.50;99.90
3202;DHT22;34843;48.744;8.958;2022-10-18T06:46:22;15.60;99.90
3202;DHT22;34843;48.744;8.958;2022-10-18T06:48:47;15.60;99.90
3202;DHT22;34843;48.744;8.958;2022-10-18T06:51:13;15.70;99.90
3202;DHT22;34843;48.744;8.958;2022-10-18T06:53:39;15.60;99.90
3202;DHT22;34843;48.744;8.958;2022-10-18T06:56:14;15.60;99.90
3202;DHT22;34843;48.744;8.958;2022-10-18T06:58:39;15.60;99.90
3202;DHT22;34843;48.744;8.958;2022-10-18T07:01:09;15.60;99.90
3202;DHT22;34843;48.744;8.958;2022-10-18T07:03:35;15.60;99.90
3202;DHT22;34843;48.744;8.958;2022-10-18T07:06:01;15.60;99.90
3202;DHT22;34843;48.744;8.958;2022-10-18T07:08:27;15.60;99.90
3202;DHT22;34843;48.744;8.958;2022-10-18T07:10:52;15.70;99.90
3202;DHT22;34843;48.744;8.958;2022-10-18T07:13:18;15.70;99.90
3202;DHT22;34843;48.744;8.958;2022-10-18T07:15:43;15.60;99.90
3202;DHT22;34843;48.744;8.958;2022-10-18T07:18:09;15.60;99.90
3202;DHT22;34843;48.744;8.958;2022-10-18T07:20:34;15.60;99.90
3202;DHT22;34843;48.744;8.958;2022-10-18T07:23:00;15.70;99.90
3202;DHT22;34843;48.744;8.958;2022-10-18T07:25:25;15.70;99.90
3202;DHT22;34843;48.744;8.958;2022-10-18T07:27:51;15.70;99.90
3202;DHT22;34843;48.744;8.958;2022-10-18T07:30:16;15.70;99.90
3202;DHT22;34843;48.744;8.958;2022-10-18T07:32:42;15.80;99.90
3202;DHT22;34843;48.744;8.958;2022-10-18T07:35:07;15.80;99.90
3202;DHT22;34843;48.744;8.958;2022-10-18T07:37:33;15.80;99.90
3202;DHT22;34843;48.744;8.958;2022-10-18T07:39:58;15.90;99.90
3202;DHT22;34843;48.744;8.958;2022-10-18T07:42:24;16.00;99.90
3202;DHT22;34843;48.744;8.958;2022-10-18T07:44:49;16.10;99.90
3202;DHT22;34843;48.744;8.958;2022-10-18T07:47:14;16.20;99.90
3202;DHT22;34843;48.744;8.958;2022-10-18T07:49:40;16.30;99.90
3202;DHT22;34843;48.744;8.958;2022-10-18T07:52:05;16.40;99.90
3202;DHT22;34843;48.744;8.958;2022-10-18T07:54:31;16.60;99.90
3202;DHT22;34843;48.744;8.958;2022-10-18T07:56:56;16.70;99.90
3202;DHT22;34843;48.744;8.958;2022-10-18T07:59:22;16.90;99.90
3202;DHT22;34843;48.744;8.958;2022-10-18T08:01:47;17.00;99.90
3202;DHT22;34843;48.744;8.958;2022-10-18T08:04:13;17.10;99.90
3202;DHT22;34843;48.744;8.958;2022-10-18T08:06:38;17.20;99.90
3202;DHT22;34843;48.744;8.958;2022-10-18T08:09:03;17.30;99.90
3202;DHT22;34843;48.744;8.958;2022-10-18T08:11:29;17.40;99.90
3202;DHT22;34843;48.744;8.958;2022-10-18T08:13:55;17.50;99.90
3202;DHT22;34843;48.744;8.958;2022-10-18T08:16:24;17.60;99.90
3202;DHT22;34843;48.744;8.958;2022-10-18T08:18:50;17.70;99.90
3202;DHT22;34843;48.744;8.958;2022-10-18T08:21:16;17.80;99.90
3202;DHT22;34843;48.744;8.958;2022-10-18T08:23:42;17.90;99.90
3202;DHT22;34843;48.744;8.958;2022-10-18T08:26:09;17.90;99.90
3202;DHT22;34843;48.744;8.958;2022-10-18T08:28:35;17.90;99.90
3202;DHT22;34843;48.744;8.958;2022-10-18T08:31:04;18.00;99.90
3202;DHT22;34843;48.744;8.958;2022-10-18T08:33:30;18.20;99.90
3202;DHT22;34843;48.744;8.958;2022-10-18T08:35:57;18.30;99.90
3202;DHT22;34843;48.744;8.958;2022-10-18T08:38:23;18.40;99.90
3202;DHT22;34843;48.744;8.958;2022-10-18T08:40:48;18.50;99.90
3202;DHT22;34843;48.744;8.958;2022-10-18T08:45:40;18.80;99.90
3202;DHT22;34843;48.744;8.958;2022-10-18T08:48:06;19.00;99.90
3202;DHT22;34843;48.744;8.958;2022-10-18T08:50:33;19.20;99.90
3202;DHT22;34843;48.744;8.958;2022-10-18T08:55:54;19.50;99.90
3202;DHT22;34843;48.744;8.958;2022-10-18T08:58:22;19.70;99.90
3202;DHT22;34843;48.744;8.958;2022-10-18T09:01:00;19.90;99.90
3202;DHT22;34843;48.744;8.958;2022-10-18T09:03:35;20.00;99.90
3202;DHT22;34843;48.744;8.958;2022-10-18T09:06:07;20.10;99.90
3202;DHT22;34843;48.744;8.958;2022-10-18T09:11:26;20.20;99.90
3202;DHT22;34843;48.744;8.958;2022-10-18T09:16:27;20.40;99.90
3202;DHT22;34843;48.744;8.958;2022-10-18T09:21:38;20.60;99.90
3202;DHT22;34843;48.744;8.958;2022-10-18T09:24:09;20.70;99.90
3202;DHT22;34843;48.744;8.958;2022-10-18T09:26:39;20.80;99.90
3202;DHT22;34843;48.744;8.958;2022-10-18T09:29:17;20.70;99.90
3202;DHT22;34843;48.744;8.958;2022-10-18T09:32:01;20.60;99.90
3202;DHT22;34843;48.744;8.958;2022-10-18T09:37:00;20.50;99.90
3202;DHT22;34843;48.744;8.958;2022-10-18T09:39:27;20.50;99.90
3202;DHT22;34843;48.744;8.958;2022-10-18T09:42:04;20.50;99.90
3202;DHT22;34843;48.744;8.958;2022-10-18T09:44:33;20.50;99.90
3202;DHT22;34843;48.744;8.958;2022-10-18T09:47:11;20.60;99.90
3202;DHT22;34843;48.744;8.958;2022-10-18T09:49:44;20.60;99.90
3202;DHT22;34843;48.744;8.958;2022-10-18T09:52:17;20.60;99.90
3202;DHT22;34843;48.744;8.958;2022-10-18T09:54:49;20.70;99.90
3202;DHT22;34843;48.744;8.958;2022-10-18T09:57:26;20.80;99.90
3202;DHT22;34843;48.744;8.958;2022-10-18T09:59:53;20.90;99.90
3202;DHT22;34843;48.744;8.958;2022-10-18T10:02:19;21.00;99.90
3202;DHT22;34843;48.744;8.958;2022-10-18T10:04:50;21.10;99.90
3202;DHT22;34843;48.744;8.958;2022-10-18T10:07:17;21.20;99.90
3202;DHT22;34843;48.744;8.958;2022-10-18T10:09:47;21.20;99.90
3202;DHT22;34843;48.744;8.958;2022-10-18T10:12:32;21.20;99.90
3202;DHT22;34843;48.744;8.958;2022-10-18T10:17:43;20.90;99.90
3202;DHT22;34843;48.744;8.958;2022-10-18T10:20:22;20.70;99.90
3202;DHT22;34843;48.744;8.958;2022-10-18T10:22:48;20.60;99.90
3202;DHT22;34843;48.744;8.958;2022-10-18T10:25:29;20.40;99.90
3202;DHT22;34843;48.744;8.958;2022-10-18T10:27:55;20.30;99.90
3202;DHT22;34843;48.744;8.958;2022-10-18T10:32:51;20.10;99.90
3202;DHT22;34843;48.744;8.958;2022-10-18T10:35:27;20.00;99.90
3202;DHT22;34843;48.744;8.958;2022-10-18T10:37:54;20.00;99.90
3202;DHT22;34843;48.744;8.958;2022-10-18T10:43:17;20.00;99.90
3202;DHT22;34843;48.744;8.958;2022-10-18T10:48:30;20.00;99.90
3202;DHT22;34843;48.744;8.958;2022-10-18T10:51:01;20.20;99.90
3202;DHT22;34843;48.744;8.958;2022-10-18T10:55:53;20.70;99.90
3202;DHT22;34843;48.744;8.958;2022-10-18T10:58:19;21.00;99.90
3202;DHT22;34843;48.744;8.958;2022-10-18T11:00:45;21.20;99.90
3202;DHT22;34843;48.744;8.958;2022-10-18T11:03:15;21.50;99.90
3202;DHT22;34843;48.744;8.958;2022-10-18T11:05:42;21.80;99.90
3202;DHT22;34843;48.744;8.958;2022-10-18T11:08:07;22.10;99.90
3202;DHT22;34843;48.744;8.958;2022-10-18T11:10:38;22.30;99.90
3202;DHT22;34843;48.744;8.958;2022-10-18T11:15:39;22.70;99.90
3202;DHT22;34843;48.744;8.958;2022-10-18T11:18:09;22.70;99.90
3202;DHT22;34843;48.744;8.958;2022-10-18T11:20:46;22.60;99.90
3202;DHT22;34843;48.744;8.958;2022-10-18T11:23:13;22.50;99.90
3202;DHT22;34843;48.744;8.958;2022-10-18T11:25:43;22.30;99.90
3202;DHT22;34843;48.744;8.958;2022-10-18T11:28:23;22.10;99.90
3202;DHT22;34843;48.744;8.958;2022-10-18T11:35:56;21.60;99.90
3202;DHT22;34843;48.744;8.958;2022-10-18T11:46:00;22.20;99.90
3202;DHT22;34843;48.744;8.958;2022-10-18T11:51:26;22.40;99.90
3202;DHT22;34843;48.744;8.958;2022-10-18T11:56:32;22.40;99.90
3202;DHT22;34843;48.744;8.958;2022-10-18T12:01:37;22.30;99.90
3202;DHT22;34843;48.744;8.958;2022-10-18T12:04:07;22.30;99.90
3202;DHT22;34843;48.744;8.958;2022-10-18T12:06:36;22.30;99.90
3202;DHT22;34843;48.744;8.958;2022-10-18T12:09:05;22.30;99.90
3202;DHT22;34843;48.744;8.958;2022-10-18T12:11:36;22.30;99.90
3202;DHT22;34843;48.744;8.958;2022-10-18T12:14:04;22.30;99.90
3202;DHT22;34843;48.744;8.958;2022-10-18T12:16:32;22.20;99.90
3202;DHT22;34843;48.744;8.958;2022-10-18T12:19:00;22.20;99.90
3202;DHT22;34843;48.744;8.958;2022-10-18T12:21:28;22.00;99.90
3202;DHT22;34843;48.744;8.958;2022-10-18T12:23:55;21.80;99.90
3202;DHT22;34843;48.744;8.958;2022-10-18T12:26:22;21.80;99.90
3202;DHT22;34843;48.744;8.958;2022-10-18T12:33:44;21.80;99.90
3202;DHT22;34843;48.744;8.958;2022-10-18T12:38:52;21.70;99.90
3202;DHT22;34843;48.744;8.958;2022-10-18T12:41:20;21.80;99.90
3202;DHT22;34843;48.744;8.958;2022-10-18T12:43:49;21.80;99.90
3202;DHT22;34843;48.744;8.958;2022-10-18T12:46:15;21.80;99.90
3202;DHT22;34843;48.744;8.958;2022-10-18T12:48:42;21.80;99.90
3202;DHT22;34843;48.744;8.958;2022-10-18T12:53:41;21.90;99.90
3202;DHT22;34843;48.744;8.958;2022-10-18T13:09:27;21.60;99.90
3202;DHT22;34843;48.744;8.958;2022-10-18T13:11:55;21.60;99.90
3202;DHT22;34843;48.744;8.958;2022-10-18T13:16:59;21.60;99.90
3202;DHT22;34843;48.744;8.958;2022-10-18T13:24:38;21.70;99.90
3202;DHT22;34843;48.744;8.958;2022-10-18T13:27:09;21.70;99.90
3202;DHT22;34843;48.744;8.958;2022-10-18T13:29:44;21.70;99.90
3202;DHT22;34843;48.744;8.958;2022-10-18T13:32:16;21.60;99.90
3202;DHT22;34843;48.744;8.958;2022-10-18T13:34:45;21.50;99.90
3202;DHT22;34843;48.744;8.958;2022-10-18T13:39:37;21.40;99.90
3202;DHT22;34843;48.744;8.958;2022-10-18T13:44:28;21.50;99.90
3202;DHT22;34843;48.744;8.958;2022-10-18T13:49:27;21.60;99.90
3202;DHT22;34843;48.744;8.958;2022-10-18T14:00:10;21.80;99.90
3202;DHT22;34843;48.744;8.958;2022-10-18T14:05:19;21.70;99.90
3202;DHT22;34843;48.744;8.958;2022-10-18T14:07:48;21.70;99.90
3202;DHT22;34843;48.744;8.958;2022-10-18T14:10:25;21.60;99.90
3202;DHT22;34843;48.744;8.958;2022-10-18T14:12:54;21.60;99.90
3202;DHT22;34843;48.744;8.958;2022-10-18T14:15:23;21.60;99.90
3202;DHT22;34843;48.744;8.958;2022-10-18T14:17:56;21.50;99.90
3202;DHT22;34843;48.744;8.958;2022-10-18T14:20:25;21.40;99.90
3202;DHT22;34843;48.744;8.958;2022-10-18T14:25:35;21.40;99.90
3202;DHT22;34843;48.744;8.958;2022-10-18T14:28:15;21.40;99.90
3202;DHT22;34843;48.744;8.958;2022-10-18T14:36:11;21.20;99.90
3202;DHT22;34843;48.744;8.958;2022-10-18T14:38:43;21.30;99.90
3202;DHT22;34843;48.744;8.958;2022-10-18T14:43:39;21.20;99.90
3202;DHT22;34843;48.744;8.958;2022-10-18T14:46:09;21.30;99.90
3202;DHT22;34843;48.744;8.958;2022-10-18T14:48:34;21.40;99.90
3202;DHT22;34843;48.744;8.958;2022-10-18T14:51:00;21.40;99.90
3202;DHT22;34843;48.744;8.958;2022-10-18T14:53:27;21.40;99.90
3202;DHT22;34843;48.744;8.958;2022-10-18T14:55:57;21.30;99.90
3202;DHT22;34843;48.744;8.958;2022-10-18T14:58:28;21.30;99.90
3202;DHT22;34843;48.744;8.958;2022-10-18T15:00:54;21.30;99.90
3202;DHT22;34843;48.744;8.958;2022-10-18T15:03:19;21.20;99.90
3202;DHT22;34843;48.744;8.958;2022-10-18T15:05:55;21.10;99.90
3202;DHT22;34843;48.744;8.958;2022-10-18T15:08:22;21.10;99.90
3202;DHT22;34843;48.744;8.958;2022-10-18T15:10:48;21.10;99.90
3202;DHT22;34843;48.744;8.958;2022-10-18T15:13:14;21.00;99.90
3202;DHT22;34843;48.744;8.958;2022-10-18T15:15:40;20.90;99.90
3202;DHT22;34843;48.744;8.958;2022-10-18T15:18:05;20.90;99.90
3202;DHT22;34843;48.744;8.958;2022-10-18T15:20:33;20.90;99.90
3202;DHT22;34843;48.744;8.958;2022-10-18T15:25:43;20.90;99.90
3202;DHT22;34843;48.744;8.958;2022-10-18T15:28:15;20.70;99.90
3202;DHT22;34843;48.744;8.958;2022-10-18T15:30:44;20.60;99.90
3202;DHT22;34843;48.744;8.958;2022-10-18T15:33:18;20.50;99.90
3202;DHT22;34843;48.744;8.958;2022-10-18T15:35:45;20.40;99.90
3202;DHT22;34843;48.744;8.958;2022-10-18T15:40:39;20.20;99.90
3202;DHT22;34843;48.744;8.958;2022-10-18T15:43:50;20.20;99.90
3202;DHT22;34843;48.744;8.958;2022-10-18T15:45:54;20.20;99.90
3202;DHT22;34843;48.744;8.958;2022-10-18T15:48:27;20.10;99.90
3202;DHT22;34843;48.744;8.958;2022-10-18T15:50:58;20.00;99.90
3202;DHT22;34843;48.744;8.958;2022-10-18T15:53:30;20.00;99.90
3202;DHT22;34843;48.744;8.958;2022-10-18T15:58:24;19.90;99.90
3202;DHT22;34843;48.744;8.958;2022-10-18T16:00:50;19.90;99.90
3202;DHT22;34843;48.744;8.958;2022-10-18T16:03:16;19.80;99.90
3202;DHT22;34843;48.744;8.958;2022-10-18T16:05:42;19.70;99.90
3202;DHT22;34843;48.744;8.958;2022-10-18T16:08:17;19.70;99.90
3202;DHT22;34843;48.744;8.958;2022-10-18T16:10:43;19.70;99.90
3202;DHT22;34843;48.744;8.958;2022-10-18T16:13:09;19.60;99.90
3202;DHT22;34843;48.744;8.958;2022-10-18T16:15:34;19.50;99.90
3202;DHT22;34843;48.744;8.958;2022-10-18T16:18:00;19.30;99.90
3202;DHT22;34843;48.744;8.958;2022-10-18T16:20:25;19.30;99.90
3202;DHT22;34843;48.744;8.958;2022-10-18T16:22:51;19.20;99.90
3202;DHT22;34843;48.744;8.958;2022-10-18T16:25:16;19.10;99.90
3202;DHT22;34843;48.744;8.958;2022-10-18T16:27:42;19.10;99.90
3202;DHT22;34843;48.744;8.958;2022-10-18T16:30:12;19.10;99.90
3202;DHT22;34843;48.744;8.958;2022-10-18T16:32:38;19.00;99.90
3202;DHT22;34843;48.744;8.958;2022-10-18T16:35:05;19.00;99.90
3202;DHT22;34843;48.744;8.958;2022-10-18T16:37:31;18.90;99.90
3202;DHT22;34843;48.744;8.958;2022-10-18T16:39:56;18.80;99.90
3202;DHT22;34843;48.744;8.958;2022-10-18T16:42:22;18.80;99.90
3202;DHT22;34843;48.744;8.958;2022-10-18T16:44:47;18.70;99.90
3202;DHT22;34843;48.744;8.958;2022-10-18T16:47:13;18.60;99.90
3202;DHT22;34843;48.744;8.958;2022-10-18T16:49:38;18.50;99.90
3202;DHT22;34843;48.744;8.958;2022-10-18T16:52:04;18.50;99.90
3202;DHT22;34843;48.744;8.958;2022-10-18T16:54:29;18.50;99.90
3202;DHT22;34843;48.744;8.958;2022-10-18T16:56:55;18.40;99.90
3202;DHT22;34843;48.744;8.958;2022-10-18T16:59:27;18.40;99.90
3202;DHT22;34843;48.744;8.958;2022-10-18T17:01:53;18.40;99.90
3202;DHT22;34843;48.744;8.958;2022-10-18T17:04:19;18.40;99.90
3202;DHT22;34843;48.744;8.958;2022-10-18T17:06:44;18.30;99.90
3202;DHT22;34843;48.744;8.958;2022-10-18T17:09:11;18.30;99.90
3202;DHT22;34843;48.744;8.958;2022-10-18T17:11:37;18.20;99.90
3202;DHT22;34843;48.744;8.958;2022-10-18T17:14:02;18.10;99.90
3202;DHT22;34843;48.744;8.958;2022-10-18T17:16:29;18.00;99.90
3202;DHT22;34843;48.744;8.958;2022-10-18T17:18:55;17.90;99.90
3202;DHT22;34843;48.744;8.958;2022-10-18T17:21:21;17.80;99.90
3202;DHT22;34843;48.744;8.958;2022-10-18T17:23:47;17.80;99.90
3202;DHT22;34843;48.744;8.958;2022-10-18T17:26:17;17.70;99.90
3202;DHT22;34843;48.744;8.958;2022-10-18T17:28:42;17.60;99.90
3202;DHT22;34843;48.744;8.958;2022-10-18T17:31:08;17.50;99.90
3202;DHT22;34843;48.744;8.958;2022-10-18T17:33:33;17.40;99.90
3202;DHT22;34843;48.744;8.958;2022-10-18T17:35:59;17.30;99.90
3202;DHT22;34843;48.744;8.958;2022-10-18T17:38:24;17.20;99.90
3202;DHT22;34843;48.744;8.958;2022-10-18T17:40:50;17.20;99.90
3202;DHT22;34843;48.744;8.958;2022-10-18T17:43:18;17.10;99.90
3202;DHT22;34843;48.744;8.958;2022-10-18T17:45:45;17.00;99.90
3202;DHT22;34843;48.744;8.958;2022-10-18T17:48:12;16.90;99.90
3202;DHT22;34843;48.744;8.958;2022-10-18T17:50:39;16.90;99.90
3202;DHT22;34843;48.744;8.958;2022-10-18T17:53:04;16.90;99.90
3202;DHT22;34843;48.744;8.958;2022-10-18T17:55:30;16.90;99.90
3202;DHT22;34843;48.744;8.958;2022-10-18T17:57:55;16.80;99.90
3202;DHT22;34843;48.744;8.958;2022-10-18T18:00:20;16.80;99.90
3202;DHT22;34843;48.744;8.958;2022-10-18T18:02:48;16.70;99.90